createdAt,value
2018-08-10T00:01:28.197Z,19.90
2018-08-10T00:03:09.430Z,20.00
2018-08-10T00:04:44.966Z,20.00
2018-08-10T00:06:21.241Z,20.00
2018-08-10T00:07:57.343Z,19.90
2018-08-10T00:09:33.453Z,19.70
2018-08-10T00:11:09.442Z,19.80
2018-08-10T00:12:44.740Z,19.90
2018-08-10T00:14:20.043Z,19.80
2018-08-10T00:15:57.767Z,19.80
2018-08-10T00:17:33.664Z,19.80
2018-08-10T00:19:09.152Z,19.90
2018-08-10T00:20:44.850Z,19.70
2018-08-10T00:22:21.020Z,19.30
2018-08-10T00:23:56.264Z,19.30
2018-08-10T00:25:32.345Z,19.40
2018-08-10T00:27:08.036Z,19.70
2018-08-10T00:28:46.298Z,19.90
2018-08-10T00:30:24.743Z,19.90
2018-08-10T00:32:01.381Z,19.80
2018-08-10T00:33:38.210Z,19.70
2018-08-10T00:35:15.423Z,19.40
2018-08-10T00:36:50.966Z,19.50
2018-08-10T00:38:26.708Z,19.50
2018-08-10T00:40:03.734Z,19.70
2018-08-10T00:41:41.988Z,19.70
2018-08-10T00:43:19.313Z,19.70
2018-08-10T00:44:55.153Z,19.70
2018-08-10T00:46:30.651Z,19.80
2018-08-10T00:48:09.069Z,19.70
2018-08-10T00:49:45.971Z,19.50
2018-08-10T00:51:21.751Z,19.40
2018-08-10T00:52:58.571Z,19.30
2018-08-10T00:54:34.270Z,19.30
2018-08-10T00:56:09.661Z,19.40
2018-08-10T00:57:45.396Z,19.10
2018-08-10T00:59:20.698Z,19.10
2018-08-10T01:00:56.861Z,19.30
2018-08-10T01:02:32.393Z,19.50
2018-08-10T01:04:08.235Z,19.30
2018-08-10T01:05:43.947Z,19.30
2018-08-10T01:07:20.999Z,19.30
2018-08-10T01:08:57.599Z,19.30
2018-08-10T01:10:37.958Z,19.20
2018-08-10T01:12:14.426Z,19.30
2018-08-10T01:13:49.971Z,19.20
2018-08-10T01:15:26.304Z,18.90
2018-08-10T01:17:01.636Z,19.00
2018-08-10T01:18:36.941Z,19.00
2018-08-10T01:20:19.919Z,19.00
2018-08-10T01:21:55.207Z,18.80
2018-08-10T01:23:30.523Z,18.90
2018-08-10T01:25:06.400Z,18.90
2018-08-10T01:26:42.084Z,19.10
2018-08-10T01:28:17.371Z,19.00
2018-08-10T01:29:52.653Z,19.10
2018-08-10T01:31:28.468Z,19.20
2018-08-10T01:33:04.314Z,19.20
2018-08-10T01:34:39.639Z,19.20
2018-08-10T01:36:15.606Z,19.10
2018-08-10T01:37:51.207Z,18.70
2018-08-10T01:39:27.216Z,18.50
2018-08-10T01:41:02.495Z,18.60
2018-08-10T01:42:38.280Z,18.60
2018-08-10T01:44:13.585Z,18.20
2018-08-10T01:45:49.676Z,18.40
2018-08-10T01:47:27.634Z,18.50
2018-08-10T01:49:03.482Z,18.60
2018-08-10T01:50:39.077Z,18.50
2018-08-10T01:52:14.668Z,18.30
2018-08-10T01:53:49.932Z,18.50
2018-08-10T01:55:25.285Z,18.60
2018-08-10T01:57:00.635Z,18.20
2018-08-10T01:58:36.431Z,17.90
2018-08-10T02:00:15.307Z,18.20
2018-08-10T02:01:50.684Z,18.40
2018-08-10T02:03:26.310Z,18.50
2018-08-10T02:05:02.122Z,18.60
2018-08-10T02:06:37.827Z,18.50
2018-08-10T02:08:13.106Z,18.60
2018-08-10T02:09:48.489Z,18.60
2018-08-10T02:11:24.467Z,18.50
2018-08-10T02:13:00.980Z,18.50
2018-08-10T02:14:39.155Z,18.50
2018-08-10T02:16:15.731Z,18.60
2018-08-10T02:17:52.185Z,18.60
2018-08-10T02:19:27.403Z,18.30
2018-08-10T02:21:02.784Z,18.30
2018-08-10T02:22:39.869Z,18.40
2018-08-10T02:24:15.558Z,18.20
2018-08-10T02:25:51.400Z,17.90
2018-08-10T02:27:26.693Z,17.70
2018-08-10T02:29:02.211Z,17.80
2018-08-10T02:30:38.979Z,18.00
2018-08-10T02:32:14.927Z,18.10
2018-08-10T02:33:50.150Z,18.20
2018-08-10T02:35:25.445Z,18.40
2018-08-10T02:37:01.460Z,18.20
2018-08-10T02:38:36.979Z,18.00
2018-08-10T02:40:15.865Z,18.20
2018-08-10T02:41:51.576Z,18.00
2018-08-10T02:43:27.484Z,18.00
2018-08-10T02:45:02.997Z,17.90
2018-08-10T02:46:38.691Z,18.00
2018-08-10T02:48:14.005Z,18.10
2018-08-10T02:49:49.616Z,18.10
2018-08-10T02:51:25.108Z,18.10
2018-08-10T02:53:00.901Z,17.90
2018-08-10T02:54:36.917Z,18.10
2018-08-10T02:56:12.841Z,18.40
2018-08-10T02:57:48.591Z,18.40
2018-08-10T02:59:24.098Z,18.20
2018-08-10T03:00:59.641Z,18.10
2018-08-10T03:02:35.580Z,18.00
2018-08-10T03:04:12.359Z,18.30
2018-08-10T03:05:47.749Z,18.30
2018-08-10T03:07:23.940Z,18.40
2018-08-10T03:08:59.865Z,18.30
2018-08-10T03:10:35.841Z,18.40
2018-08-10T03:12:13.551Z,18.50
2018-08-10T03:13:48.785Z,18.60
2018-08-10T03:15:26.378Z,18.70
2018-08-10T03:17:01.753Z,18.50
2018-08-10T03:18:37.040Z,18.40
2018-08-10T03:20:14.328Z,18.40
2018-08-10T03:21:50.698Z,18.20
2018-08-10T03:23:26.461Z,18.20
2018-08-10T03:25:01.840Z,18.30
2018-08-10T03:26:37.313Z,18.30
2018-08-10T03:28:13.131Z,18.30
2018-08-10T03:29:48.473Z,18.10
2018-08-10T03:31:24.423Z,18.20
2018-08-10T03:32:59.773Z,18.10
2018-08-10T03:34:35.407Z,18.00
2018-08-10T03:36:11.361Z,18.00
2018-08-10T03:37:46.611Z,17.70
2018-08-10T03:39:22.071Z,18.00
2018-08-10T03:40:57.946Z,18.20
2018-08-10T03:42:33.320Z,18.20
2018-08-10T03:44:08.913Z,18.30
2018-08-10T03:45:44.463Z,18.30
2018-08-10T03:47:20.133Z,18.40
2018-08-10T03:48:55.479Z,18.40
2018-08-10T03:50:31.536Z,18.40
2018-08-10T03:52:06.810Z,17.60
2018-08-10T03:53:42.618Z,17.70
2018-08-10T03:55:18.205Z,18.00
2018-08-10T03:56:55.438Z,18.10
2018-08-10T03:58:30.607Z,18.20
2018-08-10T04:00:12.321Z,18.10
2018-08-10T04:01:49.490Z,18.10
2018-08-10T04:03:25.693Z,18.20
2018-08-10T04:05:01.187Z,18.20
2018-08-10T04:06:37.003Z,18.00
2018-08-10T04:08:12.178Z,18.20
2018-08-10T04:09:47.409Z,18.30
2018-08-10T04:11:24.147Z,18.40
2018-08-10T04:12:59.752Z,18.40
2018-08-10T04:14:34.951Z,18.50
2018-08-10T04:16:11.315Z,18.50
2018-08-10T04:17:46.779Z,18.60
2018-08-10T04:19:24.587Z,18.50
2018-08-10T04:21:01.859Z,18.00
2018-08-10T04:22:37.107Z,17.70
2018-08-10T04:24:12.353Z,17.80
2018-08-10T04:25:47.669Z,18.00
2018-08-10T04:27:23.099Z,18.20
2018-08-10T04:28:58.435Z,18.40
2018-08-10T04:30:34.831Z,18.40
2018-08-10T04:32:10.328Z,18.50
2018-08-10T04:33:47.443Z,18.70
2018-08-10T04:35:24.004Z,18.50
2018-08-10T04:36:59.544Z,18.70
2018-08-10T04:38:35.705Z,18.70
2018-08-10T04:40:15.633Z,18.80
2018-08-10T04:41:51.934Z,18.90
2018-08-10T04:43:28.540Z,18.80
2018-08-10T04:45:09.180Z,19.10
2018-08-10T04:46:44.742Z,19.30
2018-08-10T04:48:26.576Z,19.40
2018-08-10T04:50:03.221Z,19.40
2018-08-10T04:51:38.879Z,19.60
2018-08-10T04:53:15.216Z,19.70
2018-08-10T04:54:53.027Z,19.90
2018-08-10T04:56:28.220Z,20.10
2018-08-10T04:58:03.933Z,20.20
2018-08-10T04:59:39.670Z,20.30
2018-08-10T05:02:48.798Z,20.30
2018-08-10T05:04:24.891Z,20.30
2018-08-10T05:06:00.479Z,19.90
2018-08-10T05:07:36.273Z,19.90
2018-08-10T05:09:14.262Z,19.80
2018-08-10T05:10:50.025Z,19.70
2018-08-10T05:12:25.460Z,19.50
2018-08-10T05:14:00.719Z,19.40
2018-08-10T05:15:37.214Z,19.70
2018-08-10T05:17:12.917Z,20.40
2018-08-10T05:18:48.183Z,20.80
2018-08-10T05:20:25.275Z,21.40
2018-08-10T05:22:00.588Z,21.70
2018-08-10T05:23:37.953Z,21.90
2018-08-10T05:25:16.541Z,21.70
2018-08-10T05:26:53.517Z,21.90
2018-08-10T05:28:32.787Z,22.20
2018-08-10T05:30:15.441Z,22.20
2018-08-10T05:31:52.193Z,22.50
2018-08-10T05:33:27.479Z,22.70
2018-08-10T05:35:07.953Z,22.70
2018-08-10T05:36:58.631Z,22.60
2018-08-10T05:38:42.118Z,22.70
2018-08-10T05:40:31.594Z,22.70
2018-08-10T05:43:48.223Z,22.50
2018-08-10T05:45:26.199Z,22.60
2018-08-10T05:47:01.697Z,22.80
2018-08-10T05:48:42.787Z,22.80
2018-08-10T05:50:18.377Z,22.90
2018-08-10T05:51:54.770Z,23.00
2018-08-10T05:53:30.114Z,22.70
2018-08-10T05:55:06.588Z,22.90
2018-08-10T05:56:43.465Z,22.90
2018-08-10T05:58:18.701Z,22.90
2018-08-10T05:59:53.996Z,22.70
2018-08-10T06:01:29.808Z,22.60
2018-08-10T06:03:05.021Z,22.60
2018-08-10T06:04:43.036Z,22.60
2018-08-10T06:06:18.257Z,22.90
2018-08-10T06:07:55.151Z,23.10
2018-08-10T06:09:30.440Z,23.20
2018-08-10T06:11:05.784Z,23.20
2018-08-10T06:12:41.039Z,23.20
2018-08-10T06:14:16.593Z,23.20
2018-08-10T06:15:54.162Z,23.40
2018-08-10T06:17:29.456Z,23.50
2018-08-10T06:19:04.746Z,23.40
2018-08-10T06:20:40.326Z,23.30
2018-08-10T06:22:15.452Z,23.40
2018-08-10T06:23:50.576Z,23.50
2018-08-10T06:25:25.740Z,23.30
2018-08-10T06:27:01.300Z,23.20
2018-08-10T06:28:36.486Z,23.20
2018-08-10T06:30:16.315Z,23.10
2018-08-10T06:31:53.212Z,23.20
2018-08-10T06:33:29.566Z,22.70
2018-08-10T06:35:04.828Z,22.60
2018-08-10T06:36:44.823Z,22.70
2018-08-10T06:38:21.885Z,22.90
2018-08-10T06:39:57.535Z,23.10
2018-08-10T06:41:32.755Z,23.30
2018-08-10T06:43:08.876Z,23.50
2018-08-10T06:44:44.097Z,23.70
2018-08-10T06:46:21.973Z,23.90
2018-08-10T06:47:57.196Z,23.90
2018-08-10T06:49:32.456Z,23.50
2018-08-10T06:51:08.475Z,23.60
2018-08-10T06:52:43.765Z,23.70
2018-08-10T06:54:19.068Z,23.40
2018-08-10T06:55:54.655Z,22.90
2018-08-10T06:57:31.579Z,22.60
2018-08-10T06:59:09.911Z,22.40
2018-08-10T07:00:47.243Z,22.50
2018-08-10T07:02:23.332Z,22.30
2018-08-10T07:04:04.974Z,22.60
2018-08-10T07:05:43.822Z,22.70
2018-08-10T07:07:19.078Z,22.70
2018-08-10T07:09:01.806Z,22.70
2018-08-10T07:10:37.339Z,22.80
2018-08-10T07:12:13.672Z,22.70
2018-08-10T07:13:51.809Z,23.10
2018-08-10T07:15:29.750Z,23.40
2018-08-10T07:17:08.986Z,23.60
2018-08-10T07:18:46.208Z,23.70
2018-08-10T07:20:21.554Z,23.90
2018-08-10T07:21:57.529Z,24.00
2018-08-10T07:23:33.670Z,24.10
2018-08-10T07:26:37.827Z,24.20
2018-08-10T07:28:13.443Z,23.80
2018-08-10T07:29:52.809Z,23.70
2018-08-10T07:31:29.757Z,23.40
2018-08-10T07:33:07.200Z,23.20
2018-08-10T07:34:48.307Z,23.00
2018-08-10T07:36:23.976Z,23.10
2018-08-10T07:37:59.765Z,23.40
2018-08-10T07:39:37.864Z,23.70
2018-08-10T07:41:14.676Z,23.80
2018-08-10T07:42:50.280Z,23.90
2018-08-10T07:44:28.346Z,24.10
2018-08-10T07:46:05.550Z,24.20
2018-08-10T07:47:42.456Z,24.20
2018-08-10T07:49:18.694Z,24.40
2018-08-10T07:50:56.020Z,24.60
2018-08-10T07:52:31.647Z,24.50
2018-08-10T07:54:07.326Z,24.30
2018-08-10T07:55:42.544Z,24.30
2018-08-10T07:57:18.984Z,24.20
2018-08-10T07:58:54.284Z,24.30
2018-08-10T08:00:31.729Z,24.40
2018-08-10T08:02:07.108Z,24.30
2018-08-10T08:03:43.756Z,24.10
2018-08-10T08:05:21.953Z,24.00
2018-08-10T08:07:10.615Z,23.90
2018-08-10T08:08:51.516Z,23.90
2018-08-10T08:10:35.637Z,23.90
2018-08-10T08:12:13.643Z,24.00
2018-08-10T08:13:49.037Z,24.00
2018-08-10T08:15:25.417Z,24.10
2018-08-10T08:17:04.156Z,23.90
2018-08-10T08:18:39.570Z,24.00
2018-08-10T08:20:22.589Z,23.90
2018-08-10T08:22:19.327Z,24.10
2018-08-10T08:24:00.952Z,24.20
2018-08-10T08:25:42.975Z,24.30
2018-08-10T08:27:19.649Z,24.20
2018-08-10T08:28:57.700Z,24.00
2018-08-10T08:30:37.944Z,23.80
2018-08-10T08:32:21.106Z,23.80
2018-08-10T08:34:07.427Z,23.90
2018-08-10T08:35:44.055Z,23.90
2018-08-10T08:37:19.462Z,24.00
2018-08-10T08:41:01.291Z,24.00
2018-08-10T08:42:37.688Z,24.20
2018-08-10T08:44:38.743Z,24.40
2018-08-10T08:46:19.065Z,24.70
2018-08-10T08:47:56.192Z,25.00
2018-08-10T08:49:32.075Z,24.90
2018-08-10T08:51:12.516Z,24.90
2018-08-10T08:52:49.012Z,24.90
2018-08-10T08:56:39.387Z,25.00
2018-08-10T08:58:16.664Z,25.10
2018-08-10T08:59:53.565Z,24.70
2018-08-10T09:01:31.262Z,24.20
2018-08-10T09:03:06.743Z,24.40
2018-08-10T09:05:07.808Z,25.00
2018-08-10T09:06:44.069Z,25.30
2018-08-10T09:08:19.662Z,25.60
2018-08-10T09:10:01.778Z,25.60
2018-08-10T09:11:38.764Z,25.40
2018-08-10T09:13:17.219Z,25.20
2018-08-10T09:15:14.326Z,24.80
2018-08-10T09:17:05.468Z,24.70
2018-08-10T09:18:41.577Z,24.60
2018-08-10T09:20:21.627Z,24.40
2018-08-10T09:21:57.917Z,24.60
2018-08-10T09:23:38.897Z,24.70
2018-08-10T09:25:19.415Z,24.70
2018-08-10T09:26:56.203Z,24.50
2018-08-10T09:28:36.112Z,24.60
2018-08-10T09:30:21.216Z,24.50
2018-08-10T09:31:58.220Z,24.40
2018-08-10T09:33:37.575Z,24.50
2018-08-10T09:35:15.118Z,24.70
2018-08-10T09:36:55.663Z,24.70
2018-08-10T09:38:31.096Z,25.10
2018-08-10T09:40:12.511Z,25.20
2018-08-10T09:43:32.746Z,25.40
2018-08-10T09:46:55.650Z,25.00
2018-08-10T09:48:31.918Z,25.00
2018-08-10T09:50:09.130Z,24.80
2018-08-10T09:51:44.485Z,24.80
2018-08-10T09:53:21.176Z,25.00
2018-08-10T09:55:29.973Z,25.20
2018-08-10T09:57:06.811Z,25.40
2018-08-10T09:58:42.252Z,25.40
2018-08-10T10:00:25.456Z,25.40
2018-08-10T10:02:16.499Z,25.30
2018-08-10T10:04:00.909Z,25.50
2018-08-10T10:05:43.123Z,25.30
2018-08-10T10:07:27.014Z,25.00
2018-08-10T10:09:03.739Z,24.60
2018-08-10T10:10:39.183Z,24.20
2018-08-10T10:12:15.780Z,24.20
2018-08-10T10:13:54.711Z,24.20
2018-08-10T10:15:37.492Z,24.10
2018-08-10T10:17:13.659Z,24.20
2018-08-10T10:18:49.952Z,24.40
2018-08-10T10:20:25.769Z,24.50
2018-08-10T10:22:01.123Z,24.30
2018-08-10T10:23:39.670Z,24.40
2018-08-10T10:25:14.961Z,24.30
2018-08-10T10:26:51.635Z,24.20
2018-08-10T10:28:27.401Z,24.20
2018-08-10T10:30:04.640Z,24.20
2018-08-10T10:31:41.260Z,24.30
2018-08-10T10:33:17.560Z,24.40
2018-08-10T10:34:54.281Z,24.30
2018-08-10T10:36:31.618Z,24.20
2018-08-10T10:38:08.723Z,24.00
2018-08-10T10:39:44.895Z,24.30
2018-08-10T10:41:20.289Z,24.30
2018-08-10T10:42:57.030Z,24.20
2018-08-10T10:44:33.558Z,24.10
2018-08-10T10:46:11.262Z,24.10
2018-08-10T10:47:48.160Z,24.00
2018-08-10T10:49:27.129Z,24.00
2018-08-10T10:51:10.809Z,24.10
2018-08-10T10:53:06.701Z,24.30
2018-08-10T10:54:48.920Z,24.30
2018-08-10T10:56:28.032Z,24.40
2018-08-10T10:58:10.465Z,24.40
2018-08-10T10:59:47.518Z,24.60
2018-08-10T11:01:23.555Z,24.50
2018-08-10T11:03:01.409Z,24.70
2018-08-10T11:04:38.193Z,24.80
2018-08-10T11:06:14.700Z,24.70
2018-08-10T11:07:51.810Z,24.90
2018-08-10T11:09:27.586Z,24.80
2018-08-10T11:11:02.878Z,24.90
2018-08-10T11:12:38.724Z,25.00
2018-08-10T11:14:17.815Z,25.20
2018-08-10T11:15:58.413Z,25.10
2018-08-10T11:17:36.502Z,24.80
2018-08-10T11:19:14.522Z,25.10
2018-08-10T11:20:55.033Z,25.30
2018-08-10T11:22:35.440Z,25.10
2018-08-10T11:24:20.562Z,25.20
2018-08-10T11:26:00.987Z,25.30
2018-08-10T11:29:34.378Z,25.50
2018-08-10T11:31:11.881Z,25.30
2018-08-10T11:33:38.268Z,25.20
2018-08-10T11:35:21.096Z,25.20
2018-08-10T11:36:58.222Z,24.90
2018-08-10T11:38:43.487Z,24.70
2018-08-10T11:40:20.521Z,24.60
2018-08-10T11:41:56.692Z,24.60
2018-08-10T11:43:32.150Z,24.80
2018-08-10T11:45:11.720Z,24.90
2018-08-10T11:46:50.411Z,25.10
2018-08-10T11:48:26.380Z,25.20
2018-08-10T11:50:05.521Z,25.40
2018-08-10T11:51:45.276Z,25.40
2018-08-10T11:53:33.246Z,25.50
2018-08-10T11:55:13.908Z,25.60
2018-08-10T11:56:50.058Z,25.50
2018-08-10T11:58:32.383Z,25.50
2018-08-10T12:00:11.987Z,25.60
2018-08-10T12:01:48.864Z,25.50
2018-08-10T12:03:27.570Z,25.50
2018-08-10T12:05:05.815Z,25.60
2018-08-10T12:06:47.765Z,25.70
2018-08-10T12:08:25.192Z,25.80
2018-08-10T12:10:00.608Z,25.90
2018-08-10T12:11:36.448Z,26.00
2018-08-10T12:13:12.595Z,26.10
2018-08-10T12:14:49.176Z,26.00
2018-08-10T12:16:24.855Z,25.80
2018-08-10T12:18:12.277Z,25.60
2018-08-10T12:19:48.741Z,25.80
2018-08-10T12:21:24.632Z,25.70
2018-08-10T12:22:59.885Z,25.60
2018-08-10T12:24:35.726Z,25.80
2018-08-10T12:26:11.043Z,25.90
2018-08-10T12:27:48.346Z,26.00
2018-08-10T12:29:23.672Z,25.90
2018-08-10T12:30:59.641Z,26.00
2018-08-10T12:32:35.573Z,25.60
2018-08-10T12:34:13.362Z,25.60
2018-08-10T12:35:51.080Z,26.00
2018-08-10T12:37:33.421Z,26.20
2018-08-10T12:39:32.641Z,26.20
2018-08-10T12:41:25.930Z,26.20
2018-08-10T12:43:21.196Z,26.30
2018-08-10T12:44:58.662Z,26.20
2018-08-10T12:46:38.056Z,26.20
2018-08-10T12:48:19.536Z,26.20
2018-08-10T12:49:59.639Z,26.20
2018-08-10T12:51:36.225Z,26.30
2018-08-10T12:53:15.639Z,26.30
2018-08-10T12:54:51.491Z,26.40
2018-08-10T12:56:28.832Z,26.50
2018-08-10T12:58:06.342Z,26.30
2018-08-10T12:59:46.741Z,26.40
2018-08-10T13:01:26.208Z,26.30
2018-08-10T13:04:39.149Z,26.10
2018-08-10T13:06:15.566Z,25.90
2018-08-10T13:07:51.384Z,25.80
2018-08-10T13:09:29.423Z,25.60
2018-08-10T13:11:06.212Z,25.60
2018-08-10T13:12:49.257Z,25.60
2018-08-10T13:14:38.290Z,25.60
2018-08-10T13:16:29.228Z,25.70
2018-08-10T13:18:04.953Z,25.70
2018-08-10T13:19:43.731Z,25.80
2018-08-10T13:21:26.231Z,25.80
2018-08-10T13:23:08.003Z,26.20
2018-08-10T13:24:50.313Z,26.40
2018-08-10T13:26:33.550Z,26.40
2018-08-10T13:28:13.521Z,26.50
2018-08-10T13:29:50.421Z,26.60
2018-08-10T13:31:26.882Z,26.60
2018-08-10T13:33:03.562Z,26.50
2018-08-10T13:34:41.918Z,26.40
2018-08-10T13:37:53.560Z,26.40
2018-08-10T13:39:35.383Z,26.20
2018-08-10T13:41:14.545Z,25.60
2018-08-10T13:42:52.307Z,25.80
2018-08-10T13:44:30.173Z,26.00
2018-08-10T13:46:09.292Z,26.00
2018-08-10T13:47:46.980Z,26.00
2018-08-10T13:49:24.945Z,26.00
2018-08-10T13:51:03.704Z,26.00
2018-08-10T13:52:41.794Z,25.90
2018-08-10T13:54:21.176Z,25.70
2018-08-10T13:55:59.795Z,25.90
2018-08-10T13:57:37.497Z,26.00
2018-08-10T13:59:22.711Z,25.90
2018-08-10T14:00:59.360Z,25.90
2018-08-10T14:02:37.227Z,25.90
2018-08-10T14:04:13.289Z,26.00
2018-08-10T14:05:49.488Z,26.00
2018-08-10T14:07:24.858Z,26.00
2018-08-10T14:09:00.443Z,26.10
2018-08-10T14:10:36.550Z,26.00
2018-08-10T14:12:12.039Z,26.10
2018-08-10T14:13:47.276Z,26.00
2018-08-10T14:15:26.843Z,26.10
2018-08-10T14:17:09.526Z,26.10
2018-08-10T14:18:47.111Z,26.10
2018-08-10T14:20:22.818Z,25.90
2018-08-10T14:22:02.471Z,25.80
2018-08-10T14:23:42.332Z,25.90
2018-08-10T14:25:19.167Z,26.00
2018-08-10T14:27:00.766Z,26.10
2018-08-10T14:28:44.500Z,26.00
2018-08-10T14:30:38.479Z,26.20
2018-08-10T14:32:23.592Z,26.20
2018-08-10T14:34:03.083Z,26.30
2018-08-10T14:35:41.252Z,26.20
2018-08-10T14:37:16.524Z,26.30
2018-08-10T14:38:51.833Z,26.20
2018-08-10T14:40:28.023Z,26.30
2018-08-10T14:42:03.655Z,26.30
2018-08-10T14:43:39.151Z,26.10
2018-08-10T14:45:18.925Z,26.10
2018-08-10T14:46:56.201Z,26.20
2018-08-10T14:48:32.595Z,26.10
2018-08-10T14:50:12.488Z,25.90
2018-08-10T14:51:48.698Z,25.90
2018-08-10T14:53:28.651Z,26.00
2018-08-10T14:55:06.276Z,26.10
2018-08-10T14:56:42.314Z,26.30
2018-08-10T14:58:18.394Z,26.40
2018-08-10T14:59:54.229Z,26.20
2018-08-10T15:01:29.750Z,26.00
2018-08-10T15:03:05.324Z,26.00
2018-08-10T15:04:41.645Z,26.00
2018-08-10T15:06:17.772Z,26.10
2018-08-10T15:07:55.027Z,26.20
2018-08-10T15:09:32.480Z,26.20
2018-08-10T15:11:08.527Z,26.20
2018-08-10T15:12:44.787Z,26.10
2018-08-10T15:14:19.935Z,26.00
2018-08-10T15:15:55.665Z,26.00
2018-08-10T15:17:32.053Z,26.00
2018-08-10T15:19:10.168Z,26.00
2018-08-10T15:20:46.466Z,26.00
2018-08-10T15:22:23.811Z,26.10
2018-08-10T15:24:00.397Z,26.30
2018-08-10T15:25:39.086Z,26.60
2018-08-10T15:27:17.229Z,26.60
2018-08-10T15:28:53.775Z,26.60
2018-08-10T15:30:32.250Z,26.40
2018-08-10T15:32:08.855Z,26.30
2018-08-10T15:33:44.852Z,26.00
2018-08-10T15:35:21.226Z,26.00
2018-08-10T15:36:59.681Z,26.20
2018-08-10T15:38:36.547Z,26.40
2018-08-10T15:40:21.654Z,26.50
2018-08-10T15:42:02.569Z,26.60
2018-08-10T15:43:40.691Z,26.40
2018-08-10T15:45:24.521Z,26.20
2018-08-10T15:47:07.831Z,26.00
2018-08-10T15:48:46.495Z,26.00
2018-08-10T15:50:27.283Z,26.10
2018-08-10T15:52:05.568Z,26.10
2018-08-10T15:53:42.679Z,26.20
2018-08-10T15:55:22.562Z,26.10
2018-08-10T15:57:00.134Z,25.90
2018-08-10T15:58:39.954Z,25.90
2018-08-10T16:00:26.546Z,25.90
2018-08-10T16:02:12.734Z,25.90
2018-08-10T16:03:48.489Z,25.90
2018-08-10T16:05:26.204Z,26.20
2018-08-10T16:07:04.375Z,26.40
2018-08-10T16:08:44.506Z,26.40
2018-08-10T16:10:22.363Z,26.50
2018-08-10T16:12:04.435Z,26.50
2018-08-10T16:13:39.921Z,26.50
2018-08-10T16:15:26.243Z,26.30
2018-08-10T16:18:04.280Z,26.20
2018-08-10T16:19:40.548Z,26.20
2018-08-10T16:21:19.226Z,26.40
2018-08-10T16:22:59.509Z,26.50
2018-08-10T16:24:36.927Z,26.50
2018-08-10T16:26:13.319Z,26.50
2018-08-10T16:27:52.644Z,26.20
2018-08-10T16:29:29.631Z,26.30
2018-08-10T16:31:13.628Z,26.30
2018-08-10T16:32:49.732Z,26.10
2018-08-10T16:34:25.652Z,26.00
2018-08-10T16:36:01.427Z,26.20
2018-08-10T16:37:36.771Z,26.10
2018-08-10T16:39:14.253Z,26.10
2018-08-10T16:41:07.642Z,26.00
2018-08-10T16:42:44.156Z,26.00
2018-08-10T16:44:24.857Z,26.00
2018-08-10T16:46:06.019Z,26.00
2018-08-10T16:49:18.076Z,25.90
2018-08-10T16:52:41.785Z,26.00
2018-08-10T16:54:26.053Z,26.20
2018-08-10T16:56:07.953Z,26.40
2018-08-10T16:57:45.157Z,26.20
2018-08-10T16:59:21.251Z,26.20
2018-08-10T17:00:56.717Z,25.70
2018-08-10T17:02:34.035Z,25.50
2018-08-10T17:04:12.974Z,25.70
2018-08-10T17:05:49.677Z,25.80
2018-08-10T17:07:25.140Z,25.70
2018-08-10T17:09:04.371Z,25.70
2018-08-10T17:10:44.084Z,25.70
2018-08-10T17:12:20.187Z,25.80
2018-08-10T17:14:01.148Z,25.60
2018-08-10T17:15:37.572Z,25.70
2018-08-10T17:17:16.137Z,25.80
2018-08-10T17:18:52.430Z,25.80
2018-08-10T17:20:30.531Z,25.90
2018-08-10T17:22:09.509Z,26.00
2018-08-10T17:23:45.655Z,26.00
2018-08-10T17:25:25.210Z,26.00
2018-08-10T17:27:03.407Z,26.00
2018-08-10T17:28:41.269Z,25.90
2018-08-10T17:30:24.006Z,25.90
2018-08-10T17:32:00.969Z,25.90
2018-08-10T17:33:39.602Z,25.90
2018-08-10T17:35:18.816Z,25.80
2018-08-10T17:36:55.265Z,25.60
2018-08-10T17:38:38.963Z,25.70
2018-08-10T17:40:17.042Z,25.60
2018-08-10T17:41:52.824Z,25.50
2018-08-10T17:43:32.550Z,25.50
2018-08-10T17:45:17.195Z,25.40
2018-08-10T17:46:55.094Z,25.40
2018-08-10T17:48:33.182Z,25.50
2018-08-10T17:50:14.155Z,25.50
2018-08-10T17:51:50.182Z,25.30
2018-08-10T17:53:28.676Z,25.30
2018-08-10T17:55:04.255Z,25.00
2018-08-10T17:56:48.546Z,25.00
2018-08-10T17:58:25.726Z,25.00
2018-08-10T18:00:10.120Z,25.30
2018-08-10T18:01:50.257Z,25.40
2018-08-10T18:03:27.660Z,25.10
2018-08-10T18:05:08.603Z,25.00
2018-08-10T18:06:45.787Z,25.10
2018-08-10T18:08:26.183Z,25.30
2018-08-10T18:10:03.224Z,25.40
2018-08-10T18:11:41.857Z,25.40
2018-08-10T18:13:31.139Z,25.30
2018-08-10T18:15:19.475Z,24.80
2018-08-10T18:16:58.195Z,24.60
2018-08-10T18:18:36.802Z,24.70
2018-08-10T18:20:17.361Z,24.90
2018-08-10T18:21:54.760Z,25.10
2018-08-10T18:23:30.651Z,25.10
2018-08-10T18:25:07.952Z,25.30
2018-08-10T18:26:44.948Z,25.40
2018-08-10T18:28:21.253Z,25.40
2018-08-10T18:30:01.356Z,25.30
2018-08-10T18:31:39.516Z,25.10
2018-08-10T18:33:17.399Z,25.10
2018-08-10T18:34:54.699Z,25.00
2018-08-10T18:36:32.630Z,25.00
2018-08-10T18:38:09.624Z,24.50
2018-08-10T18:39:47.360Z,24.60
2018-08-10T18:41:37.215Z,24.60
2018-08-10T18:43:15.245Z,24.40
2018-08-10T18:44:54.862Z,24.70
2018-08-10T18:46:34.572Z,24.60
2018-08-10T18:48:10.760Z,24.60
2018-08-10T18:49:48.487Z,25.00
2018-08-10T18:51:28.129Z,25.10
2018-08-10T18:53:06.485Z,25.20
2018-08-10T18:54:44.377Z,25.00
2018-08-10T18:56:23.602Z,24.90
2018-08-10T18:58:00.720Z,24.90
2018-08-10T18:59:43.367Z,25.10
2018-08-10T19:01:27.428Z,25.30
2018-08-10T19:03:04.265Z,25.40
2018-08-10T19:04:41.858Z,25.40
2018-08-10T19:06:19.449Z,25.40
2018-08-10T19:07:57.230Z,25.50
2018-08-10T19:09:36.338Z,25.40
2018-08-10T19:11:14.669Z,25.30
2018-08-10T19:12:51.779Z,25.00
2018-08-10T19:14:33.184Z,25.10
2018-08-10T19:16:10.248Z,25.10
2018-08-10T19:17:49.068Z,25.10
2018-08-10T19:19:27.757Z,24.90
2018-08-10T19:21:06.061Z,24.70
2018-08-10T19:22:44.981Z,24.80
2018-08-10T19:24:23.575Z,24.80
2018-08-10T19:26:01.419Z,24.70
2018-08-10T19:27:40.561Z,24.50
2018-08-10T19:29:17.569Z,24.70
2018-08-10T19:30:56.297Z,24.70
2018-08-10T19:32:33.680Z,24.90
2018-08-10T19:34:13.476Z,24.80
2018-08-10T19:35:53.786Z,24.80
2018-08-10T19:37:34.637Z,24.90
2018-08-10T19:39:13.307Z,25.10
2018-08-10T19:40:57.415Z,25.30
2018-08-10T19:42:36.768Z,25.20
2018-08-10T19:44:15.208Z,25.20
2018-08-10T19:45:56.637Z,25.30
2018-08-10T19:47:32.831Z,25.30
2018-08-10T19:49:12.695Z,25.30
2018-08-10T19:50:51.849Z,25.00
2018-08-10T19:52:29.562Z,25.00
2018-08-10T19:54:08.365Z,25.00
2018-08-10T19:55:48.525Z,24.40
2018-08-10T19:57:27.397Z,24.40
2018-08-10T19:59:04.258Z,24.60
2018-08-10T20:00:43.777Z,24.70
2018-08-10T20:02:20.713Z,24.60
2018-08-10T20:03:57.139Z,24.50
2018-08-10T20:05:35.991Z,24.60
2018-08-10T20:07:14.321Z,24.50
2018-08-10T20:08:54.013Z,24.50
2018-08-10T20:10:33.728Z,24.40
2018-08-10T20:12:14.598Z,24.40
2018-08-10T20:14:03.521Z,24.20
2018-08-10T20:15:42.663Z,24.20
2018-08-10T20:17:19.099Z,24.20
2018-08-10T20:18:54.768Z,24.00
2018-08-10T20:20:33.197Z,24.00
2018-08-10T20:22:18.761Z,23.80
2018-08-10T20:23:56.938Z,23.70
2018-08-10T20:25:34.523Z,23.70
2018-08-10T20:27:12.459Z,23.80
2018-08-10T20:28:56.404Z,24.00
2018-08-10T20:30:40.323Z,23.90
2018-08-10T20:32:30.969Z,23.90
2018-08-10T20:34:08.624Z,23.80
2018-08-10T20:35:46.892Z,23.70
2018-08-10T20:37:26.594Z,23.70
2018-08-10T20:39:04.288Z,23.70
2018-08-10T20:40:39.854Z,23.70
2018-08-10T20:42:20.197Z,23.60
2018-08-10T20:44:02.727Z,23.60
2018-08-10T20:45:40.319Z,23.60
2018-08-10T20:47:16.378Z,23.50
2018-08-10T20:49:00.228Z,23.40
2018-08-10T20:50:42.640Z,23.40
2018-08-10T20:52:21.930Z,23.40
2018-08-10T20:54:04.239Z,23.30
2018-08-10T20:55:42.332Z,23.20
2018-08-10T20:57:22.453Z,23.10
2018-08-10T20:59:00.408Z,23.10
2018-08-10T21:00:36.600Z,23.00
2018-08-10T21:02:13.780Z,23.00
2018-08-10T21:03:53.812Z,23.00
2018-08-10T21:05:33.439Z,22.80
2018-08-10T21:07:18.579Z,22.80
2018-08-10T21:09:10.276Z,22.80
2018-08-10T21:10:57.003Z,22.80
2018-08-10T21:12:33.517Z,22.80
2018-08-10T21:14:11.064Z,22.80
2018-08-10T21:15:47.671Z,22.80
2018-08-10T21:17:23.951Z,22.70
2018-08-10T21:18:59.282Z,22.70
2018-08-10T21:20:37.946Z,22.70
2018-08-10T21:22:15.943Z,22.70
2018-08-10T21:23:51.935Z,22.60
2018-08-10T21:25:30.546Z,22.60
2018-08-10T21:27:06.007Z,22.60